METAR Data
IDs: Format: Raw Decoded Include TAF

Data at: 0703 UTC 03 Aug 2021

KSMO 030651Z AUTO 00000KT 10SM CLR 19/14 A2997 RMK AO2 SLP147 T01890144
KSMO 030551Z AUTO 00000KT 10SM CLR 19/15 A2997 RMK AO2 SLP147 T01890150 10233 20183 51009
KSMO 030451Z AUTO 00000KT 10SM CLR 18/15 A2997 RMK AO2 SLP145 T01830150
KSMO 030351Z AUTO 11003KT 10SM CLR 19/16 A2996 RMK AO2 SLP142 T01890156
KSMO 030251Z 17004KT 10SM CLR 19/15 A2994 RMK AO2 SLP137 T01940150 55005
KSMO 030151Z 22007KT 10SM CLR 21/14 A2994 RMK AO2 SLP137 T02060144
KSMO 030051Z 22007KT 10SM CLR 22/14 A2994 RMK AO2 SLP138 T02170144
KSMO 022351Z 21008KT 10SM CLR 23/14 A2996 RMK AO2 SLP142 T02280144 10267 20222 58014
KSMO 022251Z 24007KT 10SM CLR 23/13 A2997 RMK AO2 SLP147 T02330133
KSMO 022151Z 26009G16KT 10SM CLR 23/14 A2998 RMK AO2 SLP151 T02280139
KSMO 022051Z 24010KT 10SM CLR 24/14 A3000 RMK AO2 SLP156 T02440139 57013
KSMO 021951Z 26007KT 10SM CLR 25/14 A3001 RMK AO2 SLP159 T02500139
KSMO 021851Z 23007KT 10SM CLR 26/13 A3002 RMK AO2 SLP165 T02560128
KSMO 021751Z 22006KT 10SM CLR 26/15 A3003 RMK AO2 SLP168 T02560150 10256 20167 58008
KSMO 021651Z 19003KT 10SM CLR 23/17 A3005 RMK AO2 SLP173 T02330167
KSMO 021551Z 00000KT 10SM CLR 22/16 A3006 RMK AO2 SLP177 T02170161
KSMO 021451Z 00000KT 10SM CLR 19/17 A3006 RMK AO2 SLP176 T01940167 51014
KSMO 021351Z AUTO 00000KT 10SM CLR 18/16 A3005 RMK AO2 SLP173 T01780156
KSMO 021251Z AUTO 00000KT 10SM CLR 17/15 A3004 RMK AO2 SLP169 T01720150
KSMO 021151Z AUTO 00000KT 10SM CLR 17/14 A3002 RMK AO2 SLP163 T01670144 10183 20167 53001
KSMO 021051Z AUTO 00000KT 10SM CLR 17/14 A3002 RMK AO2 SLP163 T01670144
KSMO 020951Z AUTO 14004KT 10SM CLR 17/14 A3001 RMK AO2 SLP160 T01670144
KSMO 020851Z AUTO 00000KT 10SM CLR 17/14 A3001 RMK AO2 SLP162 T01720144 58002
KSMO 020751Z AUTO 00000KT 10SM CLR 18/14 A3002 RMK AO2 SLP165 T01780144 402500161
KSMO 020651Z AUTO 10004KT 10SM CLR 18/14 A3002 RMK AO2 SLP163 T01830144
KSMO 020551Z AUTO 00000KT 10SM CLR 18/14 A3002 RMK AO2 SLP164 T01830144 10228 20183 51013
KSMO 020451Z AUTO 00000KT 10SM CLR 19/14 A3001 RMK AO2 SLP161 T01890144
KSMO 020351Z AUTO 09004KT 10SM CLR 19/14 A3000 RMK AO2 SLP157 T01890144
KSMO 020251Z 12004KT 10SM CLR 19/14 A2998 RMK AO2 SLP151 T01940144 56008
KSMO 020151Z 22004KT 10SM CLR 21/14 A2999 RMK AO2 SLP152 T02060139
KSMO 020051Z 24010KT 10SM CLR 22/14 A2999 RMK AO2 SLP155 T02170139
KSMO 012351Z 25009KT 10SM CLR 22/13 A3001 RMK AO2 SLP159 T02220133 10250 20217 56008
KSMO 012251Z 24012G17KT 10SM CLR 22/13 A3001 RMK AO2 SLP161 T02220133
KSMO 012151Z 24010G15KT 10SM CLR 24/14 A3003 RMK AO2 SLP166 T02390144
KSMO 012051Z 23009KT 10SM CLR 24/15 A3003 RMK AO2 SLP168 T02390150 58010
KSMO 011951Z 21008KT 190V260 10SM CLR 24/16 A3004 RMK AO2 SLP171 T02440156